Terminal Aerodrome Forecast
Issued by NWS Brownsville, TX

Home | Current Version | Previous Version | Text Only | Print | Product List | Glossary On
Versions: 1 2 3 4 5 6 7 8 9 10 11 12 13
844
FTUS44 KBRO 210506 AAB
TAFMFE
TAF AMD
KMFE 210506Z 2105/2124 10012G18KT P6SM VCSH BKN025
      TEMPO 2106/2109 TSRA BKN020CB
     FM211600 13014KT P6SM BKN040=

USA.gov is the U.S. government's official web portal to all federal, state and local government web resources and services.